createdAt,value
2019-02-14T00:01:58.362Z,37.73
2019-02-14T00:04:27.461Z,42.10
2019-02-14T00:06:56.764Z,39.37
2019-02-14T00:09:25.735Z,33.60
2019-02-14T00:11:55.255Z,42.03
2019-02-14T00:14:24.130Z,39.53
2019-02-14T00:16:55.385Z,38.87
2019-02-14T00:19:24.882Z,39.03
2019-02-14T00:21:53.827Z,38.40
2019-02-14T00:24:22.783Z,39.30
2019-02-14T00:26:52.161Z,41.33
2019-02-14T00:29:22.443Z,36.77
2019-02-14T00:31:51.436Z,41.33
2019-02-14T00:34:20.642Z,39.37
2019-02-14T00:36:49.596Z,33.10
2019-02-14T00:39:18.603Z,35.27
2019-02-14T00:41:47.619Z,33.90
2019-02-14T00:44:16.874Z,38.70
2019-02-14T00:46:45.819Z,37.37
2019-02-14T00:49:14.846Z,38.63
2019-02-14T00:51:44.066Z,35.43
2019-02-14T00:54:13.003Z,32.70
2019-02-14T00:56:41.947Z,36.53
2019-02-14T00:59:10.886Z,39.03
2019-02-14T01:01:39.881Z,36.13
2019-02-14T01:04:09.046Z,34.93
2019-02-14T01:06:38.178Z,36.67
2019-02-14T01:09:07.486Z,31.83
2019-02-14T01:11:36.467Z,36.63
2019-02-14T01:14:05.651Z,39.07
2019-02-14T01:16:34.924Z,37.40
2019-02-14T01:19:03.958Z,33.53
2019-02-14T01:21:32.917Z,33.50
2019-02-14T01:24:02.200Z,35.43
2019-02-14T01:26:31.238Z,39.97
2019-02-14T01:29:00.119Z,38.57
2019-02-14T01:31:29.067Z,36.90
2019-02-14T01:33:58.032Z,35.20
2019-02-14T01:36:27.022Z,33.90
2019-02-14T01:38:56.043Z,37.27
2019-02-14T01:41:25.323Z,35.33
2019-02-14T01:43:54.302Z,40.17
2019-02-14T01:46:23.305Z,34.57
2019-02-14T01:48:52.253Z,33.10
2019-02-14T01:51:21.271Z,35.93
2019-02-14T01:53:50.222Z,34.07
2019-02-14T01:56:21.532Z,34.53
2019-02-14T01:58:50.482Z,37.47
2019-02-14T02:01:20.871Z,32.47
2019-02-14T02:03:50.328Z,34.87
2019-02-14T02:06:19.382Z,36.70
2019-02-14T02:08:48.483Z,32.00
2019-02-14T02:11:17.602Z,34.53
2019-02-14T02:13:46.562Z,32.23
2019-02-14T02:16:15.534Z,36.90
2019-02-14T02:18:44.411Z,37.97
2019-02-14T02:21:13.367Z,33.43
2019-02-14T02:23:42.354Z,32.60
2019-02-14T02:26:12.202Z,35.93
2019-02-14T02:28:41.431Z,36.63
2019-02-14T02:31:10.496Z,34.03
2019-02-14T02:33:39.442Z,41.33
2019-02-14T02:36:08.375Z,39.23
2019-02-14T02:38:37.362Z,37.33
2019-02-14T02:41:09.113Z,38.83
2019-02-14T02:43:38.072Z,36.03
2019-02-14T02:46:07.073Z,41.40
2019-02-14T02:48:36.029Z,33.40
2019-02-14T02:51:05.684Z,34.43
2019-02-14T02:53:34.634Z,32.23
2019-02-14T02:56:03.924Z,29.80
2019-02-14T02:58:32.969Z,31.20
2019-02-14T03:01:02.268Z,33.27
2019-02-14T03:03:31.280Z,31.47
2019-02-14T03:06:09.934Z,30.70
2019-02-14T03:08:30.858Z,34.17
2019-02-14T03:10:59.794Z,30.40
2019-02-14T03:13:28.767Z,28.60
2019-02-14T03:15:57.740Z,29.87
2019-02-14T03:18:26.709Z,29.63
2019-02-14T03:20:55.887Z,31.17
2019-02-14T03:23:27.206Z,29.07
2019-02-14T03:25:56.227Z,30.67
2019-02-14T03:28:25.202Z,32.63
2019-02-14T03:30:54.170Z,30.37
2019-02-14T03:33:23.488Z,28.57
2019-02-14T03:35:52.680Z,29.17
2019-02-14T03:38:21.740Z,27.50
2019-02-14T03:40:50.927Z,29.10
2019-02-14T03:43:19.958Z,31.90
2019-02-14T03:45:48.822Z,33.60
2019-02-14T03:48:17.759Z,28.80
2019-02-14T03:50:46.689Z,28.60
2019-02-14T03:53:15.846Z,30.13
2019-02-14T03:55:45.146Z,29.40
2019-02-14T03:58:14.343Z,27.07
2019-02-14T04:00:43.338Z,29.80
2019-02-14T04:03:12.346Z,29.93
2019-02-14T04:05:41.342Z,32.43
2019-02-14T04:08:10.370Z,27.53
2019-02-14T04:10:39.304Z,27.97
2019-02-14T04:13:08.266Z,25.57
2019-02-14T04:15:37.761Z,29.40
2019-02-14T04:18:06.962Z,30.07
2019-02-14T04:20:36.243Z,30.30
2019-02-14T04:23:05.171Z,29.27
2019-02-14T04:25:34.199Z,29.67
2019-02-14T04:28:03.230Z,29.03
2019-02-14T04:30:32.483Z,32.83
2019-02-14T04:33:01.526Z,30.27
2019-02-14T04:35:30.518Z,29.43
2019-02-14T04:37:59.445Z,31.03
2019-02-14T04:40:33.573Z,29.13
2019-02-14T04:42:59.434Z,30.00
2019-02-14T04:45:28.481Z,28.03
2019-02-14T04:47:57.458Z,28.70
2019-02-14T04:50:26.401Z,33.90
2019-02-14T04:52:55.334Z,30.03
2019-02-14T04:55:24.449Z,29.90
2019-02-14T04:57:53.317Z,28.77
2019-02-14T05:00:24.842Z,28.07
2019-02-14T05:02:54.014Z,25.37
2019-02-14T05:05:22.991Z,31.07
2019-02-14T05:07:51.899Z,30.80
2019-02-14T05:10:20.860Z,25.77
2019-02-14T05:12:49.786Z,26.77
2019-02-14T05:15:18.821Z,28.60
2019-02-14T05:17:47.767Z,26.63
2019-02-14T05:20:16.714Z,28.37
2019-02-14T05:22:45.649Z,29.07
2019-02-14T05:25:14.583Z,24.30
2019-02-14T05:27:43.503Z,25.03
2019-02-14T05:30:13.325Z,21.27
2019-02-14T05:32:42.410Z,24.80
2019-02-14T05:35:11.519Z,23.97
2019-02-14T05:37:40.473Z,24.33
2019-02-14T05:40:09.871Z,25.87
2019-02-14T05:42:38.916Z,27.10
2019-02-14T05:45:08.644Z,24.20
2019-02-14T05:47:37.593Z,24.63
2019-02-14T05:50:08.026Z,26.63
2019-02-14T05:52:36.987Z,22.13
2019-02-14T05:55:06.845Z,24.23
2019-02-14T05:57:35.802Z,22.43
2019-02-14T06:00:07.541Z,23.00
2019-02-14T06:02:36.489Z,25.93
2019-02-14T06:05:06.473Z,25.63
2019-02-14T06:07:35.502Z,23.53
2019-02-14T06:10:04.672Z,22.40
2019-02-14T06:12:33.623Z,24.27
2019-02-14T06:15:02.550Z,22.17
2019-02-14T06:17:31.490Z,22.37
2019-02-14T06:20:00.337Z,23.00
2019-02-14T06:22:29.546Z,20.30
2019-02-14T06:24:58.722Z,23.47
2019-02-14T06:27:27.638Z,22.63
2019-02-14T06:30:01.939Z,23.57
2019-02-14T06:32:31.186Z,23.33
2019-02-14T06:35:00.366Z,25.73
2019-02-14T06:37:29.335Z,25.73
2019-02-14T06:39:58.258Z,22.23
2019-02-14T06:42:27.482Z,24.50
2019-02-14T06:44:57.766Z,33.20
2019-02-14T06:47:26.710Z,23.70
2019-02-14T06:49:55.635Z,49.97
2019-02-14T06:52:24.606Z,24.57
2019-02-14T06:54:53.456Z,24.83
2019-02-14T06:57:22.529Z,34.27
2019-02-14T06:59:51.456Z,24.60
2019-02-14T07:02:20.417Z,26.53
2019-02-14T07:04:51.690Z,24.83
2019-02-14T07:07:20.655Z,21.80
2019-02-14T07:09:49.630Z,26.50
2019-02-14T07:12:18.755Z,22.93
2019-02-14T07:14:47.942Z,23.37
2019-02-14T07:17:17.427Z,22.57
2019-02-14T07:19:46.417Z,23.50
2019-02-14T07:22:15.345Z,23.60
2019-02-14T07:24:44.378Z,23.43
2019-02-14T07:27:13.357Z,23.97
2019-02-14T07:29:42.540Z,25.70
2019-02-14T07:32:11.786Z,28.50
2019-02-14T07:34:43.134Z,51.77
2019-02-14T07:37:12.191Z,30.03
2019-02-14T07:39:41.286Z,23.67
2019-02-14T07:42:10.636Z,28.20
2019-02-14T07:44:39.907Z,22.70
2019-02-14T07:47:09.140Z,22.13
2019-02-14T07:49:38.290Z,24.23
2019-02-14T07:52:07.390Z,24.17
2019-02-14T07:54:36.336Z,22.60
2019-02-14T07:57:05.304Z,22.07
2019-02-14T07:59:34.246Z,23.13
2019-02-14T08:02:03.276Z,25.37
2019-02-14T08:04:32.235Z,24.40
2019-02-14T08:07:01.193Z,23.03
2019-02-14T08:09:30.110Z,23.03
2019-02-14T08:11:59.122Z,22.40
2019-02-14T08:14:28.130Z,24.17
2019-02-14T08:16:57.214Z,23.70
2019-02-14T08:19:26.315Z,22.37
2019-02-14T08:21:55.294Z,23.53
2019-02-14T08:24:24.287Z,22.43
2019-02-14T08:26:53.255Z,25.60
2019-02-14T08:29:22.742Z,23.87
2019-02-14T08:31:51.723Z,23.70
2019-02-14T08:34:20.659Z,24.83
2019-02-14T08:36:49.718Z,22.20
2019-02-14T08:39:18.696Z,25.20
2019-02-14T08:41:47.808Z,25.47
2019-02-14T08:44:16.761Z,23.43
2019-02-14T08:46:45.711Z,26.10
2019-02-14T08:49:14.630Z,24.17
2019-02-14T08:51:43.650Z,24.57
2019-02-14T08:54:12.880Z,24.23
2019-02-14T08:56:41.926Z,27.60
2019-02-14T08:59:10.874Z,24.77
2019-02-14T09:01:40.062Z,27.90
2019-02-14T09:04:09.016Z,27.43
2019-02-14T09:06:38.198Z,22.07
2019-02-14T09:09:07.485Z,24.43
2019-02-14T09:11:36.521Z,24.43
2019-02-14T09:14:05.563Z,22.93
2019-02-14T09:16:34.498Z,28.37
2019-02-14T09:19:03.475Z,23.50
2019-02-14T09:21:32.521Z,22.73
2019-02-14T09:24:01.531Z,27.87
2019-02-14T09:26:30.532Z,26.40
2019-02-14T09:28:59.493Z,21.83
2019-02-14T09:31:29.007Z,20.40
2019-02-14T09:33:58.039Z,19.97
2019-02-14T09:36:27.017Z,23.37
2019-02-14T09:38:56.511Z,21.00
2019-02-14T09:41:25.485Z,24.07
2019-02-14T09:43:54.962Z,20.60
2019-02-14T09:46:24.002Z,18.57
2019-02-14T09:48:53.357Z,18.57
2019-02-14T09:51:22.692Z,21.27
2019-02-14T09:53:51.646Z,21.63
2019-02-14T09:56:20.594Z,20.53
2019-02-14T09:58:49.569Z,18.80
2019-02-14T10:01:18.532Z,17.63
2019-02-14T10:03:47.482Z,17.53
2019-02-14T10:06:16.801Z,15.20
2019-02-14T10:08:45.767Z,16.23
2019-02-14T10:11:14.983Z,16.10
2019-02-14T10:13:45.127Z,15.33
2019-02-14T10:16:14.319Z,15.20
2019-02-14T10:18:43.326Z,18.97
2019-02-14T10:21:12.333Z,14.57
2019-02-14T10:23:41.238Z,21.57
2019-02-14T10:26:10.226Z,14.90
2019-02-14T10:28:39.104Z,17.60
2019-02-14T10:31:08.210Z,14.93
2019-02-14T10:33:37.235Z,13.47
2019-02-14T10:36:06.265Z,12.40
2019-02-14T10:38:35.159Z,16.27
2019-02-14T10:41:04.166Z,13.73
2019-02-14T10:43:33.194Z,17.80
2019-02-14T10:46:02.123Z,14.47
2019-02-14T10:48:31.074Z,14.57
2019-02-14T10:51:00.010Z,11.43
2019-02-14T10:53:29.070Z,18.80
2019-02-14T10:55:58.069Z,21.00
2019-02-14T10:58:27.100Z,17.60
2019-02-14T11:00:56.175Z,18.90
2019-02-14T11:03:25.158Z,13.70
2019-02-14T11:05:54.099Z,16.77
2019-02-14T11:08:31.379Z,13.73
2019-02-14T11:10:53.816Z,10.90
2019-02-14T11:13:22.812Z,14.50
2019-02-14T11:15:51.796Z,13.80
2019-02-14T11:18:21.458Z,11.33
2019-02-14T11:20:50.486Z,13.00
2019-02-14T11:23:19.422Z,13.43
2019-02-14T11:25:48.455Z,11.00
2019-02-14T11:28:17.474Z,12.17
2019-02-14T11:30:46.501Z,11.93
2019-02-14T11:33:15.444Z,12.50
2019-02-14T11:35:44.430Z,15.40
2019-02-14T11:38:13.421Z,10.97
2019-02-14T11:40:42.389Z,11.77
2019-02-14T11:43:11.310Z,18.37
2019-02-14T11:45:40.346Z,16.00
2019-02-14T11:48:09.275Z,16.73
2019-02-14T11:50:38.227Z,12.90
2019-02-14T11:53:13.840Z,10.07
2019-02-14T11:55:37.778Z,10.93
2019-02-14T11:58:06.796Z,8.43
2019-02-14T12:00:35.832Z,9.33
2019-02-14T12:03:04.776Z,8.10
2019-02-14T12:05:33.715Z,11.43
2019-02-14T12:08:02.627Z,9.07
2019-02-14T12:10:32.686Z,12.50
2019-02-14T12:13:01.543Z,11.40
2019-02-14T12:15:30.755Z,13.43
2019-02-14T12:18:00.027Z,11.73
2019-02-14T12:20:28.980Z,11.97
2019-02-14T12:22:57.919Z,12.97
2019-02-14T12:25:26.886Z,11.27
2019-02-14T12:27:55.898Z,15.20
2019-02-14T12:30:25.033Z,15.67
2019-02-14T12:32:54.010Z,12.30
2019-02-14T12:35:22.981Z,14.10
2019-02-14T12:37:52.348Z,15.23
2019-02-14T12:40:21.373Z,17.20
2019-02-14T12:42:50.307Z,14.00
2019-02-14T12:45:22.767Z,11.40
2019-02-14T12:47:50.651Z,15.37
2019-02-14T12:50:19.650Z,11.70
2019-02-14T12:52:48.824Z,15.07
2019-02-14T12:55:17.858Z,10.53
2019-02-14T12:57:46.786Z,12.70
2019-02-14T13:00:17.798Z,13.53
2019-02-14T13:02:46.734Z,19.73
2019-02-14T13:05:15.851Z,14.77
2019-02-14T13:07:44.886Z,14.97
2019-02-14T13:10:14.401Z,14.20
2019-02-14T13:12:43.464Z,14.30
2019-02-14T13:15:15.057Z,18.80
2019-02-14T13:17:44.093Z,15.67
2019-02-14T13:20:12.454Z,18.97
2019-02-14T13:22:41.728Z,13.27
2019-02-14T13:25:11.747Z,16.03
2019-02-14T13:27:40.854Z,17.20
2019-02-14T13:30:12.950Z,16.10
2019-02-14T13:32:42.171Z,16.53
2019-02-14T13:35:11.203Z,16.57
2019-02-14T13:37:40.586Z,18.20
2019-02-14T13:40:09.974Z,15.93
2019-02-14T13:42:38.932Z,18.27
2019-02-14T13:45:10.318Z,18.00
2019-02-14T13:47:39.523Z,19.50
2019-02-14T13:50:09.530Z,18.60
2019-02-14T13:52:38.827Z,14.10
2019-02-14T13:55:08.402Z,16.17
2019-02-14T13:57:37.623Z,18.67
2019-02-14T14:00:10.155Z,12.90
2019-02-14T14:02:39.117Z,17.73
2019-02-14T14:05:08.489Z,22.67
2019-02-14T14:07:40.448Z,17.67
2019-02-14T14:10:08.520Z,15.23
2019-02-14T14:12:37.643Z,16.53
2019-02-14T14:15:06.971Z,16.03
2019-02-14T14:17:35.937Z,17.07
2019-02-14T14:20:05.058Z,17.73
2019-02-14T14:22:34.278Z,15.43
2019-02-14T14:25:05.476Z,19.60
2019-02-14T14:27:34.454Z,32.03
2019-02-14T14:30:03.494Z,21.00
2019-02-14T14:32:32.458Z,31.00
2019-02-14T14:35:01.383Z,20.10
2019-02-14T14:37:30.420Z,18.30
2019-02-14T14:39:59.499Z,13.57
2019-02-14T14:42:56.402Z,22.03
2019-02-14T14:45:38.387Z,16.03
2019-02-14T14:48:08.275Z,20.07
2019-02-14T14:50:37.571Z,17.13
2019-02-14T14:53:07.653Z,17.80
2019-02-14T14:55:37.204Z,17.87
2019-02-14T14:58:06.439Z,16.50
2019-02-14T15:00:35.997Z,18.00
2019-02-14T15:03:05.336Z,20.93
2019-02-14T15:05:34.535Z,16.80
2019-02-14T15:08:03.595Z,14.83
2019-02-14T15:10:32.785Z,15.83
2019-02-14T15:13:01.780Z,16.77
2019-02-14T15:15:30.690Z,31.27
2019-02-14T15:18:00.623Z,15.43
2019-02-14T15:20:29.557Z,20.33
2019-02-14T15:22:58.503Z,16.23
2019-02-14T15:25:27.819Z,17.40
2019-02-14T15:27:57.030Z,18.80
2019-02-14T15:30:25.934Z,17.00
2019-02-14T15:32:54.930Z,15.57
2019-02-14T15:35:23.964Z,15.40
2019-02-14T15:37:52.913Z,16.83
2019-02-14T15:40:21.971Z,14.03
2019-02-14T15:42:50.934Z,17.50
2019-02-14T15:45:20.235Z,14.70
2019-02-14T15:47:49.255Z,18.07
2019-02-14T15:50:18.198Z,17.07
2019-02-14T15:52:47.478Z,15.73
2019-02-14T15:55:16.679Z,15.63
2019-02-14T15:57:45.727Z,16.40
2019-02-14T16:00:15.550Z,18.57
2019-02-14T16:02:44.878Z,18.07
2019-02-14T16:05:14.612Z,15.77
2019-02-14T16:07:44.514Z,17.63
2019-02-14T16:10:18.631Z,18.43
2019-02-14T16:12:45.843Z,19.20
2019-02-14T16:15:14.893Z,16.83
2019-02-14T16:17:43.822Z,22.33
2019-02-14T16:20:15.174Z,18.57
2019-02-14T16:22:44.242Z,21.33
2019-02-14T16:25:13.288Z,22.47
2019-02-14T16:27:42.251Z,20.47
2019-02-14T16:30:11.546Z,26.40
2019-02-14T16:32:40.826Z,22.57
2019-02-14T16:35:09.927Z,25.63
2019-02-14T16:37:38.893Z,20.70
2019-02-14T16:40:08.582Z,26.87
2019-02-14T16:42:37.611Z,27.07
2019-02-14T16:45:06.784Z,20.33
2019-02-14T16:47:35.995Z,23.17
2019-02-14T16:50:05.694Z,20.07
2019-02-14T16:52:34.959Z,23.63
2019-02-14T16:55:04.011Z,24.27
2019-02-14T16:57:33.063Z,23.07
2019-02-14T17:00:02.031Z,27.93
2019-02-14T17:02:31.089Z,24.73
2019-02-14T17:05:00.112Z,28.57
2019-02-14T17:07:29.442Z,25.07
2019-02-14T17:09:58.464Z,28.97
2019-02-14T17:12:27.732Z,28.30
2019-02-14T17:14:56.969Z,27.07
2019-02-14T17:17:27.850Z,26.90
2019-02-14T17:19:56.538Z,23.63
2019-02-14T17:22:25.690Z,25.40
2019-02-14T17:24:54.969Z,26.80
2019-02-14T17:27:24.150Z,27.50
2019-02-14T17:29:53.176Z,25.03
2019-02-14T17:32:22.196Z,34.10
2019-02-14T17:34:51.218Z,29.80
2019-02-14T17:37:20.231Z,33.73
2019-02-14T17:39:49.218Z,37.10
2019-02-14T17:42:18.230Z,35.87
2019-02-14T17:44:47.483Z,36.63
2019-02-14T17:47:16.406Z,36.03
2019-02-14T17:49:45.349Z,36.10
2019-02-14T17:52:14.547Z,37.17
2019-02-14T17:54:43.583Z,26.30
2019-02-14T17:57:12.679Z,29.93
2019-02-14T17:59:44.102Z,33.63
2019-02-14T18:02:14.179Z,32.07
2019-02-14T18:04:43.463Z,30.13
2019-02-14T18:07:13.042Z,33.20
2019-02-14T18:09:42.079Z,29.10
2019-02-14T18:12:11.085Z,33.83
2019-02-14T18:14:40.363Z,29.43
2019-02-14T18:17:09.303Z,29.37
2019-02-14T18:19:38.266Z,29.67
2019-02-14T18:22:07.618Z,29.87
2019-02-14T18:24:36.588Z,31.77
2019-02-14T18:27:05.811Z,31.67
2019-02-14T18:29:35.028Z,29.10
2019-02-14T18:32:03.981Z,32.07
2019-02-14T18:34:33.038Z,28.17
2019-02-14T18:37:02.010Z,30.67
2019-02-14T18:39:31.030Z,38.23
2019-02-14T18:42:00.399Z,28.67
2019-02-14T18:44:29.720Z,32.30
2019-02-14T18:46:58.760Z,31.20
2019-02-14T18:49:27.707Z,34.43
2019-02-14T18:51:56.689Z,33.00
2019-02-14T18:54:25.732Z,34.97
2019-02-14T18:56:54.688Z,34.10
2019-02-14T18:59:23.638Z,33.83
2019-02-14T19:01:52.595Z,29.67
2019-02-14T19:04:21.526Z,36.23
2019-02-14T19:06:50.731Z,35.73
2019-02-14T19:09:19.664Z,36.23
2019-02-14T19:11:48.653Z,36.23
2019-02-14T19:14:17.615Z,30.73
2019-02-14T19:16:46.944Z,33.63
2019-02-14T19:19:15.888Z,38.00
2019-02-14T19:21:45.781Z,53.97
2019-02-14T19:24:14.757Z,47.13
2019-02-14T19:26:43.729Z,49.57
2019-02-14T19:29:12.741Z,41.30
2019-02-14T19:31:41.774Z,33.70
2019-02-14T19:34:10.804Z,31.23
2019-02-14T19:36:39.840Z,32.73
2019-02-14T19:39:08.792Z,32.10
2019-02-14T19:41:38.291Z,33.50
2019-02-14T19:44:07.406Z,32.20
2019-02-14T19:46:36.706Z,34.30
2019-02-14T19:49:05.699Z,30.90
2019-02-14T19:51:34.680Z,34.70
2019-02-14T19:54:03.662Z,33.80
2019-02-14T19:56:32.911Z,31.73
2019-02-14T19:59:01.892Z,31.43
2019-02-14T20:01:30.882Z,30.20
2019-02-14T20:04:00.256Z,31.93
2019-02-14T20:06:29.279Z,30.13
2019-02-14T20:08:58.288Z,30.77
2019-02-14T20:11:36.302Z,33.90
2019-02-14T20:13:58.010Z,37.43
2019-02-14T20:16:27.006Z,34.73
2019-02-14T20:18:55.939Z,31.23
2019-02-14T20:21:24.882Z,32.50
2019-02-14T20:23:53.870Z,30.30
2019-02-14T20:26:22.810Z,35.77
2019-02-14T20:28:51.846Z,30.67
2019-02-14T20:31:20.720Z,31.57
2019-02-14T20:33:50.019Z,31.30
2019-02-14T20:36:18.967Z,33.37
2019-02-14T20:38:48.099Z,28.97
2019-02-14T20:41:17.131Z,32.00
2019-02-14T20:43:46.358Z,32.33
2019-02-14T20:46:15.507Z,34.50
2019-02-14T20:48:44.626Z,33.17
2019-02-14T20:51:13.603Z,31.20
2019-02-14T20:53:42.662Z,30.63
2019-02-14T20:56:11.717Z,28.50
2019-02-14T20:58:40.680Z,29.30
2019-02-14T21:01:09.815Z,28.17
2019-02-14T21:03:39.126Z,29.17
2019-02-14T21:06:08.520Z,31.70
2019-02-14T21:08:37.768Z,29.50
2019-02-14T21:11:06.798Z,31.37
2019-02-14T21:13:36.119Z,27.03
2019-02-14T21:16:05.550Z,27.27
2019-02-14T21:18:34.611Z,28.87
2019-02-14T21:21:03.610Z,27.23
2019-02-14T21:23:32.854Z,30.80
2019-02-14T21:26:01.815Z,26.07
2019-02-14T21:28:30.779Z,28.20
2019-02-14T21:30:59.708Z,29.67
2019-02-14T21:33:28.681Z,29.40
2019-02-14T21:35:57.715Z,30.00
2019-02-14T21:38:27.101Z,29.27
2019-02-14T21:40:56.405Z,27.70
2019-02-14T21:43:25.727Z,30.80
2019-02-14T21:45:54.751Z,31.80
2019-02-14T21:48:23.716Z,26.43
2019-02-14T21:50:52.742Z,36.83
2019-02-14T21:53:21.690Z,36.27
2019-02-14T21:55:51.353Z,44.10
2019-02-14T21:58:20.802Z,45.30
2019-02-14T22:00:49.773Z,38.70
2019-02-14T22:03:18.917Z,37.53
2019-02-14T22:05:47.886Z,32.83
2019-02-14T22:08:17.196Z,33.93
2019-02-14T22:10:46.238Z,30.77
2019-02-14T22:13:15.190Z,29.97
2019-02-14T22:15:44.372Z,31.43
2019-02-14T22:18:13.281Z,29.70
2019-02-14T22:20:42.352Z,27.93
2019-02-14T22:23:11.363Z,33.03
2019-02-14T22:25:40.360Z,30.50
2019-02-14T22:28:09.304Z,30.50
2019-02-14T22:30:38.323Z,28.83
2019-02-14T22:33:07.415Z,24.13
2019-02-14T22:35:36.443Z,24.80
2019-02-14T22:38:05.381Z,27.30
2019-02-14T22:40:34.450Z,26.77
2019-02-14T22:43:03.506Z,28.97
2019-02-14T22:45:32.577Z,26.67
2019-02-14T22:48:01.531Z,30.70
2019-02-14T22:50:30.520Z,26.73
2019-02-14T22:52:59.447Z,28.07
2019-02-14T22:55:28.467Z,24.97
2019-02-14T22:57:57.406Z,29.90
2019-02-14T23:00:34.026Z,28.27
2019-02-14T23:03:03.189Z,30.60
2019-02-14T23:05:32.221Z,30.57
2019-02-14T23:08:01.250Z,28.20
2019-02-14T23:10:30.297Z,26.80
2019-02-14T23:12:59.320Z,30.03
2019-02-14T23:15:28.266Z,31.73
2019-02-14T23:17:57.510Z,27.97
2019-02-14T23:20:26.630Z,26.63
2019-02-14T23:22:55.642Z,26.03
2019-02-14T23:25:24.571Z,28.17
2019-02-14T23:27:53.591Z,27.10
2019-02-14T23:30:22.650Z,29.17
2019-02-14T23:32:51.650Z,30.50
2019-02-14T23:35:20.682Z,30.73
2019-02-14T23:37:49.622Z,27.70
2019-02-14T23:40:18.670Z,27.73
2019-02-14T23:42:47.650Z,28.50
2019-02-14T23:45:16.636Z,28.50
2019-02-14T23:47:45.656Z,33.50
2019-02-14T23:50:14.695Z,28.77
2019-02-14T23:52:43.718Z,29.87
2019-02-14T23:55:12.784Z,29.23
2019-02-14T23:57:42.113Z,30.03
